»·PEaware :: N5268J KBFL-KMHV

N5268J :: KBFL-KMHV

FLIGHT INFORMATION

Flight Status: Arrived
Operator: Privately registered:
United States
More flights under this callsign
Pilot: John P. (31881)
Aircraft: BEECH AIRCRAFT BONANZA
(BE36)
More flights by this aircraft type
Origin: KBFL Meadows
United States
Destination: KMHV Mojave
United States
More flights between these airports :: More routes between these airports
Route: BFL TSP MHV
File this flight plan on PilotEdge
Remarks:
Altitude:
(Current/Filed)
7,500ft
Speed:
(Current/Filed)
167kts
Departed: 18-Oct-20 09:04 AM
Arrived: 18-Oct-20 09:35 AM
Distance/Time
Traveled:
49nm/0:31
Distance/Time
To Go:
Arrived

Flight Plot

Page will automatically refresh every two minutes.

Flight plan parsing failed; only flown route is shown


Map Options




Map Legend


Flown Route
Filed Route
Departure Airport
Arrival Airport
Navaid (VOR, NDB)
Fix

Horizontal Profiles

Position Reports

Time Latitude Longitude Heading Altitude Ground
Speed
18-Oct-20 08:36 0.000408 0.013975 359 3ft 0kts
18-Oct-20 08:37 0.000408 0.013975 359 3ft 0kts
18-Oct-20 08:38 35.430653 -119.048053 318 487ft 0kts
18-Oct-20 08:39 35.430653 -119.048053 318 484ft 0kts
18-Oct-20 08:40 35.430653 -119.048053 318 484ft 0kts
18-Oct-20 08:41 35.430653 -119.048053 318 484ft 0kts
18-Oct-20 08:42 35.430653 -119.048053 318 484ft 0kts
18-Oct-20 08:43 35.430653 -119.048053 318 484ft 0kts
18-Oct-20 08:44 35.430653 -119.048053 318 484ft 0kts
18-Oct-20 08:45 35.430653 -119.048053 318 484ft 0kts
18-Oct-20 08:46 35.430653 -119.048053 318 484ft 0kts
18-Oct-20 08:47 35.430653 -119.048053 318 484ft 0kts
18-Oct-20 08:48 35.430653 -119.048053 318 484ft 0kts
18-Oct-20 08:49 35.430653 -119.048053 318 484ft 0kts
18-Oct-20 08:50 35.430653 -119.048053 318 484ft 0kts
18-Oct-20 08:51 35.430653 -119.048053 318 484ft 0kts
18-Oct-20 08:52 35.430653 -119.048053 318 484ft 0kts
18-Oct-20 08:53 35.430653 -119.048053 318 484ft 0kts
18-Oct-20 08:54 35.430653 -119.048053 318 484ft 0kts
18-Oct-20 08:55 35.430653 -119.048053 318 484ft 0kts
18-Oct-20 08:56 35.430653 -119.048053 318 484ft 0kts
18-Oct-20 08:57 35.430653 -119.048053 318 484ft 0kts
18-Oct-20 08:58 35.430653 -119.048053 318 484ft 0kts
18-Oct-20 08:59 35.430653 -119.048053 318 484ft 0kts
18-Oct-20 09:00 35.429366 -119.048523 133 483ft 14kts
18-Oct-20 09:01 35.425754 -119.044731 222 471ft 0kts
18-Oct-20 09:02 35.425754 -119.044731 222 471ft 0kts
18-Oct-20 09:03 35.429929 -119.051602 316 485ft 90kts
18-Oct-20 09:04 35.451190 -119.074073 319 1421ft 105kts
18-Oct-20 09:05 35.473981 -119.096842 320 2446ft 105kts
18-Oct-20 09:06 35.496915 -119.119590 335 3258ft 107kts
18-Oct-20 09:07 35.514975 -119.096159 70 3879ft 108kts
18-Oct-20 09:08 35.523351 -119.060609 93 4387ft 109kts
18-Oct-20 09:09 35.518544 -119.023507 116 4984ft 111kts
18-Oct-20 09:10 35.502713 -118.990351 122 5875ft 114kts
18-Oct-20 09:11 35.481595 -118.960483 144 6658ft 118kts
18-Oct-20 09:12 35.451398 -118.944263 169 7318ft 126kts
18-Oct-20 09:13 35.412986 -118.932983 169 7492ft 158kts
18-Oct-20 09:14 35.370219 -118.915940 136 7494ft 168kts
18-Oct-20 09:15 35.342948 -118.869199 120 7495ft 170kts
18-Oct-20 09:16 35.319016 -118.819158 121 7497ft 169kts
18-Oct-20 09:17 35.295103 -118.769549 121 7497ft 169kts
18-Oct-20 09:18 35.271219 -118.720092 121 7500ft 169kts
18-Oct-20 09:19 35.247206 -118.670404 121 7486ft 167kts
18-Oct-20 09:20 35.223324 -118.621122 121 7496ft 168kts
18-Oct-20 09:21 35.199746 -118.572380 121 7482ft 163kts
18-Oct-20 09:22 35.176254 -118.524098 121 7417ft 161kts
18-Oct-20 09:23 35.153308 -118.476924 121 6706ft 168kts
18-Oct-20 09:25 35.131420 -118.426019 109 5903ft 170kts
18-Oct-20 09:26 35.117019 -118.370459 107 5418ft 170kts
18-Oct-20 09:27 35.106308 -118.329354 107 6633ft 116kts
18-Oct-20 09:28 35.095240 -118.287134 108 6795ft 141kts
18-Oct-20 09:29 35.083241 -118.241265 108 6790ft 146kts
18-Oct-20 09:30 35.077925 -118.193571 76 5783ft 145kts
18-Oct-20 09:31 35.087411 -118.145297 82 4787ft 147kts
18-Oct-20 09:32 35.087137 -118.096387 140 4079ft 130kts
18-Oct-20 09:33 35.059160 -118.119769 259 3475ft 123kts
18-Oct-20 09:34 35.059227 -118.153271 271 2756ft 49kts
18-Oct-20 09:35 35.058398 -118.157778 177 2766ft 0kts
18-Oct-20 09:36 35.057644 -118.159549 267 2769ft 11kts
18-Oct-20 09:37 35.057283 -118.160477 208 2771ft 0kts

Navigation Log

Ident Type
Flight plan parsing failed, navigation log unavailable